createdAt,value
2018-12-12T00:01:58.760Z,3.14
2018-12-12T00:04:28.986Z,3.15
2018-12-12T00:06:59.555Z,3.17
2018-12-12T00:09:29.472Z,3.13
2018-12-12T00:11:59.561Z,3.10
2018-12-12T00:14:29.448Z,3.12
2018-12-12T00:16:59.472Z,3.11
2018-12-12T00:19:29.479Z,3.04
2018-12-12T00:21:59.475Z,3.04
2018-12-12T00:24:29.648Z,3.10
2018-12-12T00:26:59.799Z,3.15
2018-12-12T00:29:30.069Z,3.09
2018-12-12T00:32:00.264Z,3.12
2018-12-12T00:34:30.363Z,3.07
2018-12-12T00:37:00.491Z,3.11
2018-12-12T00:39:30.659Z,3.07
2018-12-12T00:42:00.719Z,3.10
2018-12-12T00:44:30.502Z,3.12
2018-12-12T00:47:00.606Z,3.12
2018-12-12T00:49:30.382Z,3.11
2018-12-12T00:52:00.852Z,3.08
2018-12-12T00:54:31.192Z,3.09
2018-12-12T00:57:01.111Z,3.09
2018-12-12T00:59:31.431Z,3.06
2018-12-12T01:02:01.416Z,3.12
2018-12-12T01:04:31.179Z,3.05
2018-12-12T01:07:01.243Z,3.06
2018-12-12T01:09:31.296Z,3.05
2018-12-12T01:12:04.425Z,2.99
2018-12-12T01:14:34.785Z,2.99
2018-12-12T01:17:04.963Z,2.99
2018-12-12T01:19:35.089Z,3.01
2018-12-12T01:22:05.178Z,3.02
2018-12-12T01:24:35.336Z,3.03
2018-12-12T01:27:05.343Z,3.02
2018-12-12T01:29:35.450Z,3.05
2018-12-12T01:32:07.948Z,3.05
2018-12-12T01:34:38.338Z,3.04
2018-12-12T01:37:08.682Z,3.03
2018-12-12T01:39:38.450Z,3.03
2018-12-12T01:42:08.313Z,3.05
2018-12-12T01:44:38.569Z,2.98
2018-12-12T01:47:08.534Z,3.00
2018-12-12T01:49:38.734Z,3.03
2018-12-12T01:52:09.010Z,3.05
2018-12-12T01:54:39.909Z,3.04
2018-12-12T01:57:10.059Z,2.98
2018-12-12T01:59:40.239Z,3.02
2018-12-12T02:02:10.263Z,3.10
2018-12-12T02:04:40.340Z,3.11
2018-12-12T02:07:10.447Z,3.08
2018-12-12T02:09:40.602Z,3.10
2018-12-12T02:12:11.655Z,3.13
2018-12-12T02:14:41.996Z,3.10
2018-12-12T02:17:12.026Z,3.15
2018-12-12T02:19:42.705Z,3.15
2018-12-12T02:22:12.768Z,3.19
2018-12-12T02:24:42.547Z,3.21
2018-12-12T02:27:12.506Z,3.23
2018-12-12T02:29:42.334Z,3.29
2018-12-12T02:32:12.376Z,3.30
2018-12-12T02:34:46.940Z,3.19
2018-12-12T02:37:16.992Z,3.16
2018-12-12T02:39:47.194Z,2.88
2018-12-12T02:42:17.635Z,3.26
2018-12-12T02:44:47.366Z,3.21
2018-12-12T02:47:18.577Z,3.21
2018-12-12T02:49:48.313Z,3.14
2018-12-12T02:52:18.463Z,2.69
2018-12-12T02:54:48.691Z,3.07
2018-12-12T02:57:18.455Z,3.12
2018-12-12T02:59:48.635Z,3.10
2018-12-12T03:02:18.547Z,3.15
2018-12-12T03:04:48.551Z,3.19
2018-12-12T03:07:18.495Z,3.25
2018-12-12T03:09:48.556Z,3.14
2018-12-12T03:12:18.288Z,3.12
2018-12-12T03:14:48.052Z,3.07
2018-12-12T03:17:18.222Z,3.02
2018-12-12T03:19:48.562Z,3.01
2018-12-12T03:22:18.540Z,3.06
2018-12-12T03:24:48.545Z,3.05
2018-12-12T03:27:18.545Z,3.01
2018-12-12T03:29:48.365Z,3.00
2018-12-12T03:32:18.537Z,3.05
2018-12-12T03:34:48.565Z,2.96
2018-12-12T03:37:21.877Z,2.93
2018-12-12T03:39:52.115Z,2.93
2018-12-12T03:42:22.395Z,2.93
2018-12-12T03:47:41.259Z,2.80
2018-12-12T03:50:11.265Z,2.78
2018-12-12T03:52:41.479Z,2.86
2018-12-12T03:55:11.540Z,2.89
2018-12-12T03:57:41.264Z,2.90
2018-12-12T04:00:11.451Z,2.90
2018-12-12T04:02:41.635Z,2.91
2018-12-12T04:05:14.222Z,2.93
2018-12-12T04:07:44.283Z,2.93
2018-12-12T04:10:24.812Z,2.92
2018-12-12T04:12:54.955Z,2.96
2018-12-12T04:15:25.036Z,2.99
2018-12-12T04:17:55.099Z,3.01
2018-12-12T04:20:25.443Z,2.87
2018-12-12T04:22:59.037Z,2.78
2018-12-12T04:25:29.188Z,2.64
2018-12-12T04:27:59.226Z,2.65
2018-12-12T04:30:29.056Z,2.73
2018-12-12T04:32:59.182Z,2.79
2018-12-12T04:35:28.954Z,2.81
2018-12-12T04:37:59.072Z,2.86
2018-12-12T04:40:29.314Z,2.90
2018-12-12T04:42:59.411Z,2.95
2018-12-12T04:45:29.582Z,2.98
2018-12-12T04:47:59.528Z,3.01
2018-12-12T04:50:29.295Z,3.04
2018-12-12T04:52:59.432Z,3.07
2018-12-12T04:55:29.534Z,3.10
2018-12-12T04:57:59.417Z,3.11
2018-12-12T05:00:29.567Z,3.12
2018-12-12T05:03:00.174Z,3.09
2018-12-12T05:05:29.944Z,3.03
2018-12-12T05:07:59.661Z,3.01
2018-12-12T05:10:29.642Z,3.03
2018-12-12T05:13:03.863Z,3.04
2018-12-12T05:15:33.877Z,3.07
2018-12-12T05:18:03.949Z,3.09
2018-12-12T05:20:34.809Z,3.03
2018-12-12T05:23:04.755Z,2.99
2018-12-12T05:25:34.762Z,3.00
2018-12-12T05:28:04.714Z,2.85
2018-12-12T05:30:34.482Z,2.93
2018-12-12T05:33:04.581Z,2.95
2018-12-12T05:35:34.839Z,2.99
2018-12-12T05:38:04.647Z,3.01
2018-12-12T05:40:35.211Z,3.02
2018-12-12T05:43:05.423Z,3.04
2018-12-12T05:45:35.759Z,3.08
2018-12-12T05:48:05.920Z,3.06
2018-12-12T05:50:36.087Z,3.03
2018-12-12T05:53:07.457Z,3.07
2018-12-12T05:55:37.444Z,3.12
2018-12-12T05:58:07.232Z,3.14
2018-12-12T06:00:37.753Z,3.18
2018-12-12T06:03:07.696Z,3.20
2018-12-12T06:05:37.484Z,3.21
2018-12-12T06:08:07.624Z,3.20
2018-12-12T06:10:38.937Z,3.22
2018-12-12T06:13:08.713Z,3.24
2018-12-12T06:15:38.585Z,3.24
2018-12-12T06:18:08.566Z,3.24
2018-12-12T06:20:38.704Z,3.17
2018-12-12T06:23:08.501Z,3.15
2018-12-12T06:25:38.725Z,3.02
2018-12-12T06:28:08.477Z,3.04
2018-12-12T06:30:38.408Z,3.08
2018-12-12T06:33:08.423Z,3.13
2018-12-12T06:35:38.200Z,3.14
2018-12-12T06:38:08.077Z,3.16
2018-12-12T06:40:38.214Z,3.16
2018-12-12T06:43:09.153Z,3.15
2018-12-12T06:45:39.403Z,3.13
2018-12-12T06:48:09.195Z,3.16
2018-12-12T06:50:39.319Z,3.18
2018-12-12T06:53:09.517Z,3.18
2018-12-12T06:55:39.927Z,3.18
2018-12-12T06:58:10.634Z,3.21
2018-12-12T07:00:40.524Z,3.22
2018-12-12T07:03:10.366Z,3.25
2018-12-12T07:05:40.479Z,3.23
2018-12-12T07:08:10.280Z,3.24
2018-12-12T07:10:40.082Z,3.25
2018-12-12T07:13:10.347Z,3.27
2018-12-12T07:15:41.757Z,3.28
2018-12-12T07:18:11.640Z,3.25
2018-12-12T07:20:41.514Z,3.22
2018-12-12T07:23:14.882Z,3.28
2018-12-12T07:25:45.371Z,3.21
2018-12-12T07:28:15.419Z,3.22
2018-12-12T07:30:45.513Z,3.17
2018-12-12T07:33:15.837Z,3.17
2018-12-12T07:35:45.819Z,3.05
2018-12-12T07:38:15.782Z,3.06
2018-12-12T07:40:45.535Z,3.02
2018-12-12T07:43:15.420Z,3.04
2018-12-12T07:45:45.347Z,2.95
2018-12-12T07:48:15.440Z,3.01
2018-12-12T07:50:46.521Z,2.98
2018-12-12T07:53:16.312Z,2.90
2018-12-12T07:55:47.178Z,2.81
2018-12-12T07:58:17.334Z,2.86
2018-12-12T08:00:47.430Z,2.94
2018-12-12T08:03:17.252Z,2.91
2018-12-12T08:05:47.414Z,2.99
2018-12-12T08:08:17.927Z,3.05
2018-12-12T08:10:48.114Z,2.96
2018-12-12T08:13:18.296Z,2.94
2018-12-12T08:15:48.053Z,2.97
2018-12-12T08:18:18.086Z,3.00
2018-12-12T08:20:48.249Z,2.99
2018-12-12T08:23:18.983Z,3.00
2018-12-12T08:25:49.099Z,3.08
2018-12-12T08:28:19.469Z,3.14
2018-12-12T08:30:49.191Z,3.22
2018-12-12T08:33:19.365Z,3.07
2018-12-12T08:35:49.449Z,3.26
2018-12-12T08:38:19.442Z,3.33
2018-12-12T08:40:49.449Z,3.33
2018-12-12T08:43:20.674Z,3.38
2018-12-12T08:45:50.483Z,3.41
2018-12-12T08:48:20.302Z,3.37
2018-12-12T08:51:01.734Z,3.33
2018-12-12T08:53:31.490Z,3.27
2018-12-12T08:56:01.539Z,3.35
2018-12-12T08:58:31.314Z,3.36
2018-12-12T09:01:01.720Z,3.41
2018-12-12T09:03:31.895Z,3.45
2018-12-12T09:06:02.627Z,3.50
2018-12-12T09:08:32.644Z,3.51
2018-12-12T09:11:02.393Z,3.54
2018-12-12T09:13:32.416Z,3.59
2018-12-12T09:16:02.242Z,3.60
2018-12-12T09:18:32.312Z,3.51
2018-12-12T09:21:02.457Z,3.57
2018-12-12T09:23:32.297Z,3.59
2018-12-12T09:26:02.178Z,3.63
2018-12-12T09:28:32.271Z,3.56
2018-12-12T09:31:02.409Z,3.56
2018-12-12T09:33:32.406Z,3.56
2018-12-12T09:36:02.452Z,3.59
2018-12-12T09:38:33.511Z,3.60
2018-12-12T09:41:03.235Z,3.64
2018-12-12T09:43:33.230Z,3.65
2018-12-12T09:46:03.224Z,3.64
2018-12-12T09:48:33.447Z,3.65
2018-12-12T09:51:07.352Z,3.64
2018-12-12T09:53:35.509Z,3.62
2018-12-12T09:56:05.288Z,3.64
2018-12-12T09:58:35.102Z,3.58
2018-12-12T10:01:06.366Z,3.60
2018-12-12T10:03:36.501Z,3.60
2018-12-12T10:06:06.592Z,3.61
2018-12-12T10:08:36.409Z,3.55
2018-12-12T10:11:07.385Z,3.66
2018-12-12T10:13:37.352Z,2.98
2018-12-12T10:16:07.364Z,3.76
2018-12-12T10:18:37.437Z,3.84
2018-12-12T10:21:07.196Z,3.87
2018-12-12T10:23:37.309Z,3.86
2018-12-12T10:26:07.443Z,3.84
2018-12-12T10:28:37.375Z,3.81
2018-12-12T10:31:07.515Z,3.76
2018-12-12T10:33:37.887Z,3.83
2018-12-12T10:36:08.260Z,3.77
2018-12-12T10:38:38.172Z,3.86
2018-12-12T10:41:08.333Z,3.87
2018-12-12T10:43:38.319Z,3.93
2018-12-12T10:46:08.748Z,4.03
2018-12-12T10:48:38.634Z,4.10
2018-12-12T10:51:08.385Z,4.06
2018-12-12T10:53:38.137Z,4.08
2018-12-12T10:56:08.318Z,3.94
2018-12-12T10:58:38.368Z,3.90
2018-12-12T11:01:13.564Z,3.94
2018-12-12T11:03:44.459Z,3.95
2018-12-12T11:06:15.047Z,3.43
2018-12-12T11:08:45.153Z,3.42
2018-12-12T11:11:15.585Z,3.14
2018-12-12T11:13:45.333Z,3.10
2018-12-12T11:16:15.065Z,3.18
2018-12-12T11:18:45.222Z,3.13
2018-12-12T11:21:15.296Z,3.15
2018-12-12T11:23:46.733Z,3.26
2018-12-12T11:26:16.559Z,3.33
2018-12-12T11:28:46.392Z,3.33
2018-12-12T11:31:16.544Z,3.37
2018-12-12T11:33:50.475Z,3.40
2018-12-12T11:36:18.667Z,3.45
2018-12-12T11:38:48.689Z,3.49
2018-12-12T11:41:19.569Z,3.51
2018-12-12T11:43:49.313Z,3.48
2018-12-12T11:46:19.285Z,3.52
2018-12-12T11:48:49.529Z,3.54
2018-12-12T11:51:19.380Z,3.58
2018-12-12T11:53:49.484Z,3.55
2018-12-12T11:56:19.486Z,3.54
2018-12-12T11:58:49.553Z,3.54
2018-12-12T12:01:19.521Z,3.44
2018-12-12T12:06:32.837Z,3.56
2018-12-12T12:09:02.779Z,3.57
2018-12-12T12:11:32.568Z,3.66
2018-12-12T12:14:02.487Z,3.61
2018-12-12T12:16:32.554Z,3.65
2018-12-12T12:19:10.275Z,3.72
2018-12-12T12:21:40.594Z,3.67
2018-12-12T12:24:11.733Z,3.71
2018-12-12T12:26:41.658Z,3.77
2018-12-12T12:29:15.693Z,3.82
2018-12-12T12:31:45.553Z,3.83
2018-12-12T12:34:15.249Z,3.76
2018-12-12T12:36:46.307Z,3.84
2018-12-12T12:39:16.573Z,3.87
2018-12-12T12:41:46.502Z,3.85
2018-12-12T12:44:16.560Z,3.88
2018-12-12T12:46:46.349Z,3.85
2018-12-12T12:49:16.584Z,3.80
2018-12-12T12:51:46.653Z,3.83
2018-12-12T12:54:16.395Z,3.74
2018-12-12T12:56:46.517Z,3.86
2018-12-12T12:59:16.450Z,3.92
2018-12-12T13:04:32.942Z,3.94
2018-12-12T13:07:03.481Z,3.94
2018-12-12T13:09:34.293Z,4.00
2018-12-12T13:12:04.867Z,4.09
2018-12-12T13:14:36.004Z,4.09
2018-12-12T13:17:06.068Z,4.08
2018-12-12T13:19:36.163Z,3.98
2018-12-12T13:22:06.574Z,3.89
2018-12-12T13:24:36.760Z,3.82
2018-12-12T13:27:06.596Z,3.82
2018-12-12T13:29:36.612Z,3.90
2018-12-12T13:32:06.337Z,3.90
2018-12-12T13:34:36.090Z,3.76
2018-12-12T13:37:06.263Z,3.78
2018-12-12T13:39:36.051Z,3.79
2018-12-12T13:42:06.100Z,3.76
2018-12-12T13:44:36.366Z,3.78
2018-12-12T13:47:06.377Z,3.73
2018-12-12T13:49:36.420Z,3.71
2018-12-12T13:52:06.368Z,3.77
2018-12-12T13:54:36.375Z,3.83
2018-12-12T13:57:07.564Z,3.81
2018-12-12T13:59:37.656Z,3.83
2018-12-12T14:02:07.562Z,3.75
2018-12-12T14:07:22.717Z,3.76
2018-12-12T14:09:52.468Z,3.75
2018-12-12T14:12:22.628Z,3.75
2018-12-12T14:14:52.789Z,3.66
2018-12-12T14:17:22.523Z,3.66
2018-12-12T14:19:52.495Z,3.68
2018-12-12T14:22:23.605Z,3.67
2018-12-12T14:25:11.132Z,3.67
2018-12-12T14:27:46.982Z,3.63
2018-12-12T14:30:17.464Z,3.62
2018-12-12T14:32:47.740Z,3.61
2018-12-12T14:35:17.437Z,3.56
2018-12-12T14:37:47.877Z,3.52
2018-12-12T14:40:18.093Z,3.48
2018-12-12T14:42:48.157Z,3.47
2018-12-12T14:45:17.941Z,3.43
2018-12-12T14:47:52.092Z,3.41
2018-12-12T14:50:22.307Z,3.40
2018-12-12T14:52:52.676Z,3.38
2018-12-12T14:55:22.386Z,3.36
2018-12-12T14:57:52.505Z,3.33
2018-12-12T15:00:22.648Z,3.28
2018-12-12T15:02:52.603Z,3.24
2018-12-12T15:05:22.737Z,3.24
2018-12-12T15:07:52.587Z,3.21
2018-12-12T15:10:23.664Z,3.19
2018-12-12T15:12:53.550Z,3.16
2018-12-12T15:15:23.679Z,3.13
2018-12-12T15:17:53.671Z,3.10
2018-12-12T15:20:23.548Z,3.06
2018-12-12T15:22:53.523Z,3.04
2018-12-12T15:25:23.507Z,3.02
2018-12-12T15:27:53.709Z,3.00
2018-12-12T15:30:23.507Z,2.96
2018-12-12T15:32:53.501Z,2.94
2018-12-12T15:35:23.503Z,2.92
2018-12-12T15:37:53.419Z,2.82
2018-12-12T15:40:23.655Z,2.87
2018-12-12T15:42:53.493Z,2.85
2018-12-12T15:45:23.686Z,2.82
2018-12-12T15:47:53.624Z,2.79
2018-12-12T15:50:23.727Z,2.76
2018-12-12T15:52:55.490Z,2.72
2018-12-12T15:55:25.670Z,2.70
2018-12-12T15:57:55.768Z,2.68
2018-12-12T16:00:27.691Z,2.65
2018-12-12T16:02:58.247Z,2.62
2018-12-12T16:05:28.741Z,2.61
2018-12-12T16:07:59.474Z,2.24
2018-12-12T16:10:29.596Z,2.57
2018-12-12T16:12:59.930Z,2.55
2018-12-12T16:15:30.455Z,2.49
2018-12-12T16:18:01.022Z,2.46
2018-12-12T16:20:31.108Z,2.43
2018-12-12T16:23:01.292Z,2.36
2018-12-12T16:25:31.394Z,2.30
2018-12-12T16:28:01.287Z,2.30
2018-12-12T16:30:31.309Z,2.32
2018-12-12T16:33:01.453Z,2.26
2018-12-12T16:35:31.834Z,2.28
2018-12-12T16:38:01.693Z,2.27
2018-12-12T16:40:32.029Z,2.28
2018-12-12T16:43:02.408Z,2.24
2018-12-12T16:45:32.219Z,2.25
2018-12-12T16:48:02.111Z,2.27
2018-12-12T16:50:32.229Z,2.25
2018-12-12T16:53:02.491Z,2.24
2018-12-12T16:55:32.344Z,2.24
2018-12-12T16:58:02.251Z,2.25
2018-12-12T17:00:32.368Z,2.25
2018-12-12T17:03:02.299Z,2.24
2018-12-12T17:05:32.544Z,2.23
2018-12-12T17:08:02.739Z,2.21
2018-12-12T17:10:32.580Z,2.15
2018-12-12T17:13:03.133Z,2.14
2018-12-12T17:15:33.121Z,2.12
2018-12-12T17:18:03.469Z,2.09
2018-12-12T17:20:33.315Z,2.06
2018-12-12T17:23:03.275Z,2.03
2018-12-12T17:25:33.430Z,2.05
2018-12-12T17:28:03.374Z,2.05
2018-12-12T17:30:33.256Z,2.04
2018-12-12T17:33:03.363Z,2.04
2018-12-12T17:35:33.413Z,2.05
2018-12-12T17:38:03.489Z,2.04
2018-12-12T17:40:35.911Z,2.03
2018-12-12T17:43:06.058Z,2.01
2018-12-12T17:48:20.221Z,2.00
2018-12-12T17:50:50.364Z,1.99
2018-12-12T17:53:20.100Z,2.00
2018-12-12T17:55:50.221Z,1.89
2018-12-12T17:58:20.577Z,1.89
2018-12-12T18:00:50.405Z,1.90
2018-12-12T18:03:20.576Z,1.92
2018-12-12T18:05:50.774Z,1.92
2018-12-12T18:08:20.723Z,1.93
2018-12-12T18:10:50.841Z,1.92
2018-12-12T18:13:21.379Z,1.91
2018-12-12T18:15:51.163Z,1.90
2018-12-12T18:18:21.529Z,1.90
2018-12-12T18:20:51.680Z,1.86
2018-12-12T18:23:21.827Z,1.88
2018-12-12T18:25:51.981Z,1.88
2018-12-12T18:28:22.196Z,1.86
2018-12-12T18:30:52.479Z,1.86
2018-12-12T18:33:22.498Z,1.86
2018-12-12T18:35:53.074Z,1.85
2018-12-12T18:38:23.290Z,1.83
2018-12-12T18:40:53.414Z,1.80
2018-12-12T18:43:27.189Z,1.80
2018-12-12T18:45:58.632Z,1.77
2018-12-12T18:48:28.584Z,1.75
2018-12-12T18:50:59.884Z,1.74
2018-12-12T18:53:30.195Z,1.73
2018-12-12T18:56:00.315Z,1.70
2018-12-12T18:58:30.341Z,1.68
2018-12-12T19:01:01.013Z,1.67
2018-12-12T19:03:35.643Z,1.65
2018-12-12T19:06:05.774Z,1.64
2018-12-12T19:08:36.020Z,1.62
2018-12-12T19:11:06.532Z,1.61
2018-12-12T19:13:37.157Z,1.59
2018-12-12T19:16:07.014Z,1.57
2018-12-12T19:18:38.279Z,1.55
2018-12-12T19:21:08.493Z,1.55
2018-12-12T19:23:39.322Z,1.52
2018-12-12T19:26:09.539Z,1.49
2018-12-12T19:28:39.391Z,1.46
2018-12-12T19:31:09.844Z,1.43
2018-12-12T19:33:41.734Z,1.41
2018-12-12T19:36:11.766Z,1.22
2018-12-12T19:38:45.617Z,1.37
2018-12-12T19:41:16.501Z,1.36
2018-12-12T19:43:49.953Z,1.33
2018-12-12T19:46:31.282Z,1.32
2018-12-12T19:49:02.195Z,1.29
2018-12-12T19:51:32.950Z,1.27
2018-12-12T19:54:04.215Z,1.26
2018-12-12T19:56:34.409Z,1.23
2018-12-12T19:59:04.542Z,1.21
2018-12-12T20:01:34.493Z,1.19
2018-12-12T20:04:04.614Z,1.17
2018-12-12T20:06:34.542Z,1.15
2018-12-12T20:09:06.622Z,1.12
2018-12-12T20:11:36.799Z,1.14
2018-12-12T20:14:06.703Z,1.12
2018-12-12T20:16:37.016Z,1.11
2018-12-12T20:19:07.557Z,1.11
2018-12-12T20:21:37.547Z,1.11
2018-12-12T20:24:07.578Z,1.11
2018-12-12T20:26:37.820Z,1.09
2018-12-12T20:29:08.121Z,1.09
2018-12-12T20:31:38.127Z,1.09
2018-12-12T20:34:08.300Z,1.11
2018-12-12T20:36:38.563Z,1.11
2018-12-12T20:39:13.712Z,1.11
2018-12-12T20:41:43.779Z,1.16
2018-12-12T20:44:23.341Z,1.20
2018-12-12T20:46:53.337Z,1.21
2018-12-12T20:49:23.677Z,1.23
2018-12-12T20:54:55.524Z,1.27
2018-12-12T20:57:25.504Z,1.28
2018-12-12T20:59:55.381Z,1.29
2018-12-12T21:02:25.594Z,1.30
2018-12-12T21:04:55.823Z,1.31
2018-12-12T21:07:25.835Z,1.28
2018-12-12T21:09:55.853Z,1.29
2018-12-12T21:12:26.148Z,1.28
2018-12-12T21:14:56.224Z,1.28
2018-12-12T21:17:26.485Z,1.28
2018-12-12T21:19:56.913Z,1.30
2018-12-12T21:22:27.466Z,1.34
2018-12-12T21:24:57.215Z,1.37
2018-12-12T21:27:27.099Z,1.42
2018-12-12T21:29:57.427Z,1.43
2018-12-12T21:32:27.464Z,1.46
2018-12-12T21:34:57.563Z,1.46
2018-12-12T21:37:27.569Z,1.47
2018-12-12T21:39:57.317Z,1.47
2018-12-12T21:42:27.176Z,1.46
2018-12-12T21:44:57.652Z,1.47
2018-12-12T21:47:27.469Z,1.50
2018-12-12T21:49:57.604Z,1.52
2018-12-12T21:52:27.515Z,1.53
2018-12-12T21:54:57.793Z,1.55
2018-12-12T21:57:27.749Z,1.56
2018-12-12T21:59:57.832Z,1.57
2018-12-12T22:02:27.623Z,1.59
2018-12-12T22:04:57.578Z,1.59
2018-12-12T22:07:27.428Z,1.57
2018-12-12T22:09:57.141Z,1.55
2018-12-12T22:12:27.217Z,1.56
2018-12-12T22:14:57.439Z,1.57
2018-12-12T22:17:27.241Z,1.57
2018-12-12T22:19:58.683Z,1.58
2018-12-12T22:22:29.571Z,1.59
2018-12-12T22:24:59.804Z,1.59
2018-12-12T22:27:29.573Z,1.60
2018-12-12T22:29:59.425Z,1.60
2018-12-12T22:32:29.349Z,1.61
2018-12-12T22:34:59.112Z,1.63
2018-12-12T22:37:29.271Z,1.63
2018-12-12T22:39:59.239Z,1.66
2018-12-12T22:42:29.348Z,1.66
2018-12-12T22:44:59.575Z,1.66
2018-12-12T22:47:29.474Z,1.66
2018-12-12T22:49:59.205Z,1.65
2018-12-12T22:52:29.260Z,1.64
2018-12-12T22:54:59.472Z,1.62
2018-12-12T22:57:29.519Z,1.60
2018-12-12T22:59:59.922Z,1.61
2018-12-12T23:02:30.987Z,1.63
2018-12-12T23:05:01.268Z,1.65
2018-12-12T23:07:31.585Z,1.66
2018-12-12T23:10:01.339Z,1.67
2018-12-12T23:12:31.451Z,1.69
2018-12-12T23:15:01.448Z,1.66
2018-12-12T23:17:31.523Z,1.66
2018-12-12T23:20:01.542Z,1.67
2018-12-12T23:22:31.435Z,1.66
2018-12-12T23:25:01.436Z,1.67
2018-12-12T23:27:31.432Z,1.66
2018-12-12T23:30:01.350Z,1.67
2018-12-12T23:32:31.413Z,1.66
2018-12-12T23:35:01.245Z,1.66
2018-12-12T23:37:31.336Z,1.64
2018-12-12T23:40:01.182Z,1.56
2018-12-12T23:42:31.352Z,1.65
2018-12-12T23:45:01.249Z,1.63
2018-12-12T23:47:31.378Z,1.64
2018-12-12T23:50:01.741Z,1.63
2018-12-12T23:52:31.665Z,1.65
2018-12-12T23:55:01.957Z,1.65
2018-12-12T23:57:31.792Z,1.63
